Time;durP1;ratioP1;P1;durP2;ratioP2;P2;SDS_P1;SDS_P2;PMS_P1;PMS_P2;Temp;Humidity;BMP_temperature;BMP_pressure;BME280_temperature;BME280_humidity;BME280_pressure;Samples;Min_cycle;Max_cycle;Signal;HPM_P1;HPM_P2
2023/05/06 00:00:55;;;;;;;7.72;6.25;;;10.10;99.90;10.60;94239.00;;;;7394537;19;20125;-80
2023/05/06 00:03:23;;;;;;;9.70;7.15;;;10.00;99.90;10.50;94222.00;;;;7396318;19;20175;-79
2023/05/06 00:05:57;;;;;;;11.98;7.00;;;10.00;99.90;10.50;94245.00;;;;7395072;19;20478;-79
2023/05/06 00:08:38;;;;;;;11.10;7.43;;;10.00;99.90;10.50;94219.00;;;;7399269;19;20125;-79
2023/05/06 00:11:12;;;;;;;8.47;7.47;;;10.00;99.90;10.40;94155.00;;;;7399318;19;20125;-79
2023/05/06 00:13:46;;;;;;;12.95;8.38;;;10.00;99.90;10.50;94228.00;;;;7397962;19;20667;-79
2023/05/06 00:16:20;;;;;;;12.40;8.52;;;10.00;99.90;10.60;94244.00;;;;7395089;19;20149;-78
2023/05/06 00:18:54;;;;;;;12.90;8.70;;;10.10;99.90;10.50;94240.00;;;;7396237;19;20137;-78
2023/05/06 00:21:28;;;;;;;11.27;8.45;;;10.10;99.90;10.50;94234.00;;;;7397453;19;20148;-78
2023/05/06 00:24:02;;;;;;;12.38;8.75;;;10.10;99.90;10.70;94210.00;;;;7399590;19;20156;-79
2023/05/06 00:26:36;;;;;;;13.80;9.57;;;10.10;1.00;10.70;94232.00;;;;7399691;19;20521;-79
2023/05/06 00:29:10;;;;;;;13.20;10.00;;;10.10;1.00;10.70;94202.00;;;;7399822;19;20500;-79
2023/05/06 00:31:37;;;;;;;13.82;10.30;;;10.10;1.00;10.50;94214.00;;;;7397671;19;20176;-78
2023/05/06 00:34:11;;;;;;;13.65;9.90;;;10.10;1.00;10.60;94214.00;;;;7397623;19;20515;-78
2023/05/06 00:36:45;;;;;;;13.63;10.13;;;10.10;1.00;10.60;94182.00;;;;7401642;19;20136;-78
2023/05/06 00:39:19;;;;;;;17.00;11.95;;;10.00;1.00;10.50;94181.00;;;;7399332;19;20512;-78
2023/05/06 00:41:52;;;;;;;15.60;11.52;;;10.00;1.00;10.40;94229.00;;;;7399105;19;20596;-78
2023/05/06 00:44:26;;;;;;;14.67;10.87;;;9.90;1.00;10.40;94208.00;;;;7400558;19;20140;-78
2023/05/06 00:47:00;;;;;;;14.32;11.60;;;10.00;1.00;10.40;94228.00;;;;7399323;19;20145;-79
2023/05/06 00:49:34;;;;;;;23.77;12.63;;;9.90;1.00;10.40;94219.00;;;;7399175;19;20652;-78
2023/05/06 00:52:02;;;;;;;16.20;12.10;;;9.90;1.00;10.40;94191.00;;;;7398902;19;20156;-78
2023/05/06 00:54:43;;;;;;;16.48;12.35;;;9.90;1.00;10.40;94217.00;;;;7397643;19;20125;-79
2023/05/06 00:57:12;;;;;;;19.17;13.73;;;9.90;1.00;10.30;94169.00;;;;7398602;19;20144;-79
2023/05/06 00:59:46;;;;;;;19.15;12.95;;;9.80;1.00;10.20;94186.00;;;;7399012;19;20512;-79
2023/05/06 01:02:13;;;;;;;20.95;12.65;;;9.80;1.00;10.20;94194.00;;;;7396789;19;20179;-79
2023/05/06 01:05:00;;;;;;;16.13;12.18;;;9.70;1.00;10.20;94219.00;;;;7399428;19;20125;-79
2023/05/06 01:08:05;;;;;;;23.33;13.82;;;9.70;1.00;10.20;94214.00;;;;7398872;19;20140;-78
2023/05/06 01:10:52;;;;;;;16.30;12.30;;;9.70;1.00;10.20;94188.00;;;;7396295;19;20148;-78
2023/05/06 01:13:39;;;;;;;19.17;12.35;;;9.70;1.00;10.20;94188.00;;;;7394544;19;20124;-79
2023/05/06 01:16:11;;;;;;;18.10;12.95;;;9.70;1.00;10.20;94173.00;;;;7399519;19;20137;-78
2023/05/06 01:18:50;;;;;;;18.15;13.05;;;9.70;1.00;10.20;94215.00;;;;7391109;19;20524;-79
2023/05/06 01:21:33;;;;;;;20.38;13.48;;;9.70;1.00;10.30;94176.00;;;;7395760;19;20599;-79
2023/05/06 01:24:01;;;;;;;23.60;14.25;;;9.80;1.00;10.40;94224.00;;;;7397111;19;20164;-78
2023/05/06 01:26:35;;;;;;;23.80;14.82;;;9.80;1.00;10.60;94215.00;;;;7398899;19;20128;-79
2023/05/06 01:29:02;;;;;;;23.92;15.10;;;9.90;2.70;10.70;94212.00;;;;7397416;19;20137;-79
2023/05/06 01:31:49;;;;;;;18.23;14.52;;;10.00;9.20;10.60;94205.00;;;;7396900;19;20141;-79
2023/05/06 01:34:58;;;;;;;27.90;17.00;;;10.00;20.50;10.70;94202.00;;;;7396640;19;20473;-78
2023/05/06 01:37:43;;;;;;;20.63;15.82;;;10.10;33.30;10.70;94211.00;;;;7397205;19;20149;-79
2023/05/06 01:40:15;;;;;;;24.55;16.10;;;10.10;59.50;10.90;94204.00;;;;7397679;19;20136;-79
2023/05/06 01:42:49;;;;;;;24.08;16.50;;;10.10;74.60;10.90;94177.00;;;;7397444;19;20140;-78
2023/05/06 01:45:28;;;;;;;26.67;17.23;;;10.10;92.30;11.00;94195.00;;;;7398011;19;20200;-79
2023/05/06 01:47:57;;;;;;;24.35;16.63;;;10.10;99.90;10.80;94159.00;;;;7395152;19;20140;-77
2023/05/06 01:50:32;;;;;;;27.48;17.02;;;10.20;99.90;10.70;94160.00;;;;7398671;19;20595;-79
2023/05/06 01:53:06;;;;;;;23.55;15.90;;;10.10;99.90;10.90;94170.00;;;;7397878;19;20128;-79
2023/05/06 01:55:33;;;;;;;23.70;16.73;;;10.10;99.90;10.80;94206.00;;;;7398242;19;20465;-79
2023/05/06 01:58:07;;;;;;;26.38;15.75;;;10.10;99.90;10.60;94169.00;;;;7397919;19;20144;-79
2023/05/06 02:00:34;;;;;;;20.20;14.65;;;10.00;99.90;10.50;94199.00;;;;7392053;19;20647;-79
2023/05/06 02:03:08;;;;;;;22.30;15.70;;;9.90;99.90;10.50;94184.00;;;;7393777;19;20148;-79
2023/05/06 02:05:49;;;;;;;24.30;15.63;;;9.90;99.90;10.40;94212.00;;;;7397194;19;20152;-80
2023/05/06 02:08:29;;;;;;;22.15;14.32;;;9.90;99.90;10.20;94199.00;;;;7396907;19;21032;-79
2023/05/06 02:11:03;;;;;;;28.35;16.10;;;9.80;99.90;10.30;94187.00;;;;7397819;19;20141;-77
2023/05/06 02:13:37;;;;;;;20.10;15.05;;;9.90;99.90;10.30;94211.00;;;;7395681;19;20160;-76
2023/05/06 02:16:11;;;;;;;22.95;15.57;;;9.80;99.90;10.20;94172.00;;;;7396527;19;20144;-79
2023/05/06 02:18:45;;;;;;;23.45;15.35;;;9.80;99.90;10.20;94178.00;;;;7396489;19;20175;-80
2023/05/06 02:21:12;;;;;;;25.50;16.25;;;9.80;99.90;10.20;94198.00;;;;7395948;19;20173;-79
2023/05/06 02:23:46;;;;;;;23.88;14.43;;;9.70;99.90;10.10;94185.00;;;;7399830;19;20599;-80
2023/05/06 02:26:20;;;;;;;19.95;14.05;;;9.70;99.90;10.10;94181.00;;;;7402888;19;20133;-79
2023/05/06 02:28:47;;;;;;;22.13;14.70;;;9.50;99.90;10.10;94212.00;;;;7400121;19;20160;-78
2023/05/06 02:31:21;;;;;;;18.42;13.77;;;9.50;99.90;10.10;94196.00;;;;7403875;19;20136;-76
2023/05/06 02:33:49;;;;;;;20.77;13.70;;;9.50;99.90;10.10;94188.00;;;;7402358;19;20144;-79
2023/05/06 02:36:23;;;;;;;24.38;14.80;;;9.50;99.90;10.10;94204.00;;;;7405578;19;20479;-78
2023/05/06 02:38:50;;;;;;;19.95;13.05;;;9.50;99.90;10.00;94203.00;;;;7405515;19;20164;-79
2023/05/06 02:41:24;;;;;;;24.13;13.68;;;9.50;99.90;10.10;94157.00;;;;7402260;19;20218;-78
2023/05/06 02:43:58;;;;;;;19.13;14.30;;;9.50;99.90;10.00;94189.00;;;;7403183;19;20174;-78
2023/05/06 02:46:34;;;;;;;23.08;14.85;;;9.40;99.90;10.00;94169.00;;;;7403550;19;20152;-78
2023/05/06 02:49:01;;;;;;;23.58;13.38;;;9.30;99.90;9.90;94209.00;;;;7405134;19;20164;-78
2023/05/06 02:51:35;;;;;;;20.23;13.30;;;9.20;99.90;9.70;94189.00;;;;7402767;19;20155;-78
2023/05/06 02:54:02;;;;;;;26.88;13.30;;;9.10;99.90;9.50;94211.00;;;;7400795;19;20608;-78
2023/05/06 02:56:36;;;;;;;34.07;13.43;;;8.90;99.90;9.30;94172.00;;;;7403119;19;20154;-78
2023/05/06 02:59:04;;;;;;;23.80;12.27;;;8.80;99.90;9.30;94163.00;;;;7403147;19;20137;-78
2023/05/06 03:01:38;;;;;;;18.55;12.02;;;8.70;99.90;9.50;94165.00;;;;7403349;19;20607;-76
2023/05/06 03:04:05;;;;;;;22.60;12.43;;;8.70;99.90;9.40;94196.00;;;;7404657;19;20628;-78
2023/05/06 03:06:45;;;;;;;21.77;12.40;;;8.80;99.90;9.30;94181.00;;;;7399531;19;20164;-78
2023/05/06 03:09:19;;;;;;;23.83;12.88;;;8.70;99.90;9.30;94188.00;;;;7401256;19;20137;-78
2023/05/06 03:11:53;;;;;;;17.67;12.30;;;8.70;99.90;9.20;94198.00;;;;7401646;19;20113;-78
2023/05/06 03:14:20;;;;;;;20.33;11.83;;;8.70;99.90;9.10;94199.00;;;;7400636;19;20591;-76
2023/05/06 03:16:54;;;;;;;22.63;11.93;;;8.60;93.00;8.90;94132.00;;;;7402101;19;20141;-77
2023/05/06 03:19:21;;;;;;;194.63;15.70;;;8.40;78.80;8.90;94165.00;;;;7397585;19;20199;-78
2023/05/06 03:21:55;;;;;;;16.90;11.00;;;8.30;62.70;8.80;94162.00;;;;7400340;19;20159;-77
2023/05/06 03:24:22;;;;;;;16.50;11.17;;;8.20;53.60;8.70;94179.00;;;;7401563;19;20623;-77
2023/05/06 03:26:57;;;;;;;22.63;12.03;;;8.10;43.50;8.60;94137.00;;;;7402079;19;20212;-77
2023/05/06 03:29:31;;;;;;;23.80;12.10;;;8.10;44.10;8.70;94168.00;;;;7401555;19;20141;-77
2023/05/06 03:32:05;;;;;;;34.67;13.70;;;8.10;40.10;8.60;94169.00;;;;7401379;19;20148;-77
2023/05/06 03:34:39;;;;;;;60.83;14.13;;;8.00;28.20;8.50;94138.00;;;;7397418;19;20200;-77
2023/05/06 03:37:06;;;;;;;462.07;28.93;;;7.90;20.00;8.50;94188.00;;;;7401492;19;20494;-77
2023/05/06 03:39:33;;;;;;;99.83;14.63;;;7.90;18.00;8.40;94188.00;;;;7401165;19;20141;-78
2023/05/06 03:42:07;;;;;;;26.30;14.20;;;7.80;15.00;8.70;94149.00;;;;7401326;19;20603;-77
2023/05/06 03:44:40;;;;;;;23.87;12.73;;;7.90;14.50;8.60;94156.00;;;;7400887;19;20622;-77
2023/05/06 03:47:14;;;;;;;21.57;12.47;;;8.00;27.20;8.70;94160.00;;;;7399777;19;20511;-76
2023/05/06 03:49:48;;;;;;;27.00;12.70;;;8.10;18.30;8.50;94181.00;;;;7403499;19;20158;-78
2023/05/06 03:52:22;;;;;;;24.00;14.17;;;8.10;22.00;8.70;94178.00;;;;7400561;19;20160;-78
2023/05/06 03:54:56;;;;;;;28.20;14.23;;;8.10;18.40;8.80;94168.00;;;;7398681;19;20151;-78
2023/05/06 03:57:30;;;;;;;23.48;13.32;;;8.20;17.50;8.70;94176.00;;;;7400664;19;20476;-78
2023/05/06 04:00:05;;;;;;;25.73;13.67;;;8.20;19.90;8.70;94149.00;;;;7399972;19;20156;-78
2023/05/06 04:02:41;;;;;;;24.40;13.10;;;8.20;16.60;8.70;94169.00;;;;7396675;19;20176;-78
2023/05/06 04:05:08;;;;;;;29.27;13.47;;;8.20;17.40;8.80;94136.00;;;;7401235;19;20200;-78
2023/05/06 04:07:49;;;;;;;20.87;12.50;;;8.30;17.50;8.90;94162.00;;;;7399657;19;20560;-78
2023/05/06 04:10:16;;;;;;;25.50;13.87;;;8.30;15.10;8.90;94144.00;;;;7400842;19;20135;-78
2023/05/06 04:12:51;;;;;;;25.53;12.33;;;8.40;17.40;9.00;94177.00;;;;7401746;19;20594;-79
2023/05/06 04:15:25;;;;;;;30.93;14.60;;;8.40;15.00;8.90;94152.00;;;;7399909;19;20152;-77
2023/05/06 04:17:59;;;;;;;24.17;12.80;;;8.40;26.70;9.00;94131.00;;;;7398565;19;20611;-76
2023/05/06 04:20:33;;;;;;;24.73;13.00;;;8.40;27.40;8.90;94120.00;;;;7397884;19;20220;-78
2023/05/06 04:23:07;;;;;;;31.80;14.07;;;8.40;37.50;8.80;94164.00;;;;7397392;19;20133;-78
2023/05/06 04:25:41;;;;;;;28.33;13.17;;;8.30;54.10;8.70;94178.00;;;;7401532;19;20156;-78
2023/05/06 04:28:16;;;;;;;24.27;12.20;;;8.10;67.50;8.60;94166.00;;;;7401194;19;20202;-78
2023/05/06 04:30:50;;;;;;;24.33;12.07;;;8.10;75.60;8.70;94148.00;;;;7400054;19;20194;-78
2023/05/06 04:33:24;;;;;;;31.90;14.07;;;8.10;71.40;9.00;94182.00;;;;7398829;19;20149;-78
2023/05/06 04:35:59;;;;;;;30.10;12.17;;;8.30;60.20;8.90;94172.00;;;;7399923;19;20156;-78
2023/05/06 04:38:34;;;;;;;21.90;11.87;;;8.30;65.40;9.10;94169.00;;;;7400784;19;20671;-76
2023/05/06 04:41:08;;;;;;;30.23;14.20;;;8.30;58.60;9.10;94158.00;;;;7399399;19;20132;-77
2023/05/06 04:43:42;;;;;;;63.20;17.13;;;8.40;49.80;9.30;94181.00;;;;7398392;19;20603;-77
2023/05/06 04:46:16;;;;;;;149.40;17.77;;;8.50;28.30;9.40;94186.00;;;;7396580;19;20152;-78
2023/05/06 04:48:50;;;;;;;43.73;14.93;;;8.70;26.00;9.50;94186.00;;;;7400380;19;20153;-79
2023/05/06 04:51:25;;;;;;;36.08;13.80;;;8.80;20.80;9.50;94197.00;;;;7399453;19;20658;-78
2023/05/06 04:53:59;;;;;;;24.53;14.60;;;8.90;22.10;9.40;94181.00;;;;7399278;19;20207;-76
2023/05/06 04:56:26;;;;;;;20.20;12.57;;;9.00;30.20;9.60;94186.00;;;;7396824;19;20481;-77
2023/05/06 04:59:00;;;;;;;21.58;12.70;;;9.10;39.10;9.70;94191.00;;;;7395055;19;20133;-79
2023/05/06 05:01:27;;;;;;;21.92;12.57;;;9.10;50.00;9.80;94198.00;;;;7395756;19;20136;-77
2023/05/06 05:04:01;;;;;;;21.00;12.57;;;9.20;54.40;9.80;94207.00;;;;7400317;19;20188;-77
2023/05/06 05:06:34;;;;;;;17.63;11.40;;;9.20;59.30;9.90;94209.00;;;;7397790;19;20173;-79
2023/05/06 05:09:09;;;;;;;17.42;11.07;;;9.30;62.50;10.10;94155.00;;;;7397852;19;20499;-77
2023/05/06 05:11:39;;;;;;;20.77;11.90;;;9.40;64.60;10.30;94179.00;;;;7371354;19;20147;-77
2023/05/06 05:14:13;;;;;;;16.23;11.00;;;9.50;68.40;10.50;94184.00;;;;7380820;19;20191;-78
2023/05/06 05:16:47;;;;;;;18.27;10.15;;;9.60;73.90;10.60;94157.00;;;;7381570;19;20149;-78
2023/05/06 05:19:21;;;;;;;14.52;10.18;;;9.70;74.00;10.50;94199.00;;;;7383316;19;20717;-77
2023/05/06 05:21:48;;;;;;;18.42;10.15;;;9.80;79.40;10.80;94208.00;;;;7382143;19;21183;-78
2023/05/06 05:24:22;;;;;;;15.25;10.43;;;10.00;94.00;11.00;94212.00;;;;7380573;19;20129;-78
2023/05/06 05:26:56;;;;;;;15.98;9.93;;;10.00;99.90;11.10;94202.00;;;;7383279;19;20128;-78
2023/05/06 05:29:46;;;;;;;15.85;10.50;;;10.00;99.90;11.10;94217.00;;;;7381862;19;20200;-76
2023/05/06 05:32:39;;;;;;;16.25;9.63;;;10.10;99.90;11.40;94212.00;;;;7384220;19;20157;-76
2023/05/06 05:35:15;;;;;;;14.90;9.57;;;10.10;99.90;11.50;94210.00;;;;7377456;19;20128;-76
2023/05/06 05:37:48;;;;;;;11.10;8.20;;;10.20;99.90;11.70;94202.00;;;;7373949;19;20593;-77
2023/05/06 05:40:23;;;;;;;13.18;9.05;;;10.20;99.90;11.90;94214.00;;;;7372363;19;20171;-77
2023/05/06 05:42:50;;;;;;;10.23;8.00;;;10.30;99.90;12.00;94210.00;;;;7372704;19;20145;-76
2023/05/06 05:45:24;;;;;;;11.02;7.88;;;10.40;99.90;12.10;94203.00;;;;7373149;19;20149;-76
2023/05/06 05:47:53;;;;;;;8.98;7.10;;;10.50;99.90;12.40;94208.00;;;;7373892;19;20151;-75
2023/05/06 05:50:27;;;;;;;10.85;7.57;;;10.60;1.00;12.60;94213.00;;;;7373010;19;20156;-77
2023/05/06 05:52:55;;;;;;;7.45;6.50;;;10.60;99.90;12.80;94191.00;;;;7372005;19;20133;-77
2023/05/06 05:55:29;;;;;;;6.85;5.72;;;10.70;99.90;12.90;94196.00;;;;7370024;19;20150;-77
2023/05/06 05:57:57;;;;;;;7.78;5.68;;;10.90;99.90;13.20;94181.00;;;;7376998;19;20152;-77
2023/05/06 06:00:31;;;;;;;5.90;5.10;;;11.20;99.90;13.50;94196.00;;;;7376496;19;20159;-76
2023/05/06 06:02:59;;;;;;;8.85;4.78;;;11.40;99.90;13.30;94187.00;;;;7389877;19;20157;-76
2023/05/06 06:05:41;;;;;;;5.78;4.15;;;11.60;99.90;13.60;94193.00;;;;7386191;19;20200;-77
2023/05/06 06:08:17;;;;;;;4.13;3.42;;;11.70;99.90;13.80;94213.00;;;;7390330;19;20136;-77
2023/05/06 06:10:51;;;;;;;5.00;3.70;;;11.70;99.90;13.80;94209.00;;;;7389162;19;20136;-76
2023/05/06 06:13:19;;;;;;;4.82;3.10;;;11.80;1.00;13.80;94171.00;;;;7390363;19;22342;-76
2023/05/06 06:15:56;;;;;;;4.32;2.67;;;11.90;99.90;14.60;94189.00;;;;7384658;19;20152;-76
2023/05/06 06:18:24;;;;;;;4.57;2.85;;;11.80;99.90;14.10;94207.00;;;;7392140;19;20150;-76
2023/05/06 06:20:58;;;;;;;3.13;2.78;;;12.00;99.90;14.00;94215.00;;;;7390503;19;20766;-76
2023/05/06 06:23:26;;;;;;;2.63;2.40;;;12.20;99.90;14.20;94214.00;;;;7389611;19;20180;-77
2023/05/06 06:26:03;;;;;;;5.45;2.70;;;12.30;1.00;14.60;94208.00;;;;7386982;19;20484;-77
2023/05/06 06:28:31;;;;;;;3.00;2.40;;;12.40;99.90;13.70;94229.00;;;;7375772;19;20159;-76
2023/05/06 06:31:05;;;;;;;3.83;2.33;;;12.40;3.10;13.80;94217.00;;;;7389620;19;20140;-77
2023/05/06 06:33:33;;;;;;;2.72;2.17;;;12.40;1.00;13.50;94228.00;;;;7388421;19;20139;-77
2023/05/06 06:36:08;;;;;;;2.92;2.10;;;12.50;99.90;14.20;94214.00;;;;7389398;19;20121;-77
2023/05/06 06:38:35;;;;;;;3.95;1.73;;;12.60;1.00;14.20;94217.00;;;;7386105;19;20518;-77
2023/05/06 06:41:09;;;;;;;2.17;1.60;;;12.70;1.00;14.00;94191.00;;;;7379302;19;20152;-78
2023/05/06 06:43:48;;;;;;;1.48;1.38;;;12.70;99.90;13.90;94222.00;;;;7388131;19;20144;-77
2023/05/06 06:46:23;;;;;;;2.53;1.40;;;12.50;99.90;13.90;94217.00;;;;7390084;19;20157;-77
2023/05/06 06:49:00;;;;;;;2.38;1.40;;;12.40;98.70;13.80;94230.00;;;;7379549;19;20169;-77
2023/05/06 06:51:34;;;;;;;1.42;1.33;;;12.50;99.90;14.20;94221.00;;;;7373722;19;20144;-78
2023/05/06 06:54:02;;;;;;;2.03;1.38;;;12.50;1.00;14.80;94224.00;;;;7374411;19;20133;-78
2023/05/06 06:56:36;;;;;;;3.08;1.42;;;12.70;1.00;14.80;94235.00;;;;7372649;19;20150;-78
2023/05/06 06:59:04;;;;;;;1.60;1.30;;;13.00;1.00;14.70;94227.00;;;;7371787;19;20198;-79
2023/05/06 07:01:41;;;;;;;2.97;1.20;;;13.00;99.90;14.30;94229.00;;;;7370705;19;20215;-78
2023/05/06 07:04:15;;;;;;;2.88;1.38;;;13.20;1.00;14.70;94202.00;;;;7375430;19;20141;-78
2023/05/06 07:06:56;;;;;;;2.20;1.27;;;13.40;99.90;15.10;94224.00;;;;7375576;19;20242;-77
2023/05/06 07:09:23;;;;;;;4.22;1.15;;;13.80;99.90;15.90;94219.00;;;;7372933;19;20208;-78
2023/05/06 07:11:58;;;;;;;1.67;1.10;;;14.20;99.90;16.20;94228.00;;;;7374614;19;20938;-77
2023/05/06 07:14:26;;;;;;;2.22;1.02;;;14.40;1.00;15.20;94238.00;;;;7373239;19;20129;-77
2023/05/06 07:17:01;;;;;;;1.80;1.13;;;14.70;1.00;16.00;94239.00;;;;7375160;19;20140;-77
2023/05/06 07:19:31;;;;;;;3.83;1.40;;;14.70;99.90;15.60;94236.00;;;;7373961;19;20129;-78
2023/05/06 07:22:05;;;;;;;3.35;1.00;;;14.90;1.00;15.70;94208.00;;;;7373038;19;20149;-77
2023/05/06 07:24:33;;;;;;;2.80;1.40;;;14.90;1.00;16.20;94240.00;;;;7373789;19;20165;-75
2023/05/06 07:27:01;;;;;;;1.02;0.93;;;14.60;99.90;15.40;94244.00;;;;7372135;19;20200;-77
2023/05/06 07:29:36;;;;;;;2.40;1.23;;;14.60;99.90;15.00;94253.00;;;;7372686;19;20152;-77
2023/05/06 07:32:04;;;;;;;2.70;1.30;;;14.60;99.90;15.00;94235.00;;;;7374272;19;20168;-77
2023/05/06 07:34:38;;;;;;;1.92;1.40;;;14.60;99.90;15.50;94240.00;;;;7368891;19;20636;-77
2023/05/06 07:37:07;;;;;;;4.53;1.45;;;14.50;99.90;16.00;94233.00;;;;7370699;19;20133;-77
2023/05/06 07:39:42;;;;;;;2.60;1.30;;;14.70;99.90;17.20;94228.00;;;;7376088;19;20148;-77
2023/05/06 07:42:11;;;;;;;5.10;1.08;;;15.20;99.90;17.60;94221.00;;;;7371778;19;20165;-77
2023/05/06 07:44:45;;;;;;;1.50;1.30;;;15.70;99.90;18.20;94232.00;;;;7375209;19;20148;-76
2023/05/06 07:47:30;;;;;;;2.40;1.20;;;16.20;26.60;17.20;94238.00;;;;7375484;19;20158;-77
2023/05/06 07:50:05;;;;;;;5.55;1.30;;;16.70;1.00;18.10;94245.00;;;;7376021;19;20148;-77
2023/05/06 07:52:39;;;;;;;4.18;1.38;;;17.00;1.00;18.40;94207.00;;;;7371290;19;20148;-77
2023/05/06 07:55:09;;;;;;;2.15;1.30;;;17.00;12.60;19.00;94234.00;;;;7371946;19;20132;-77
2023/05/06 07:57:43;;;;;;;1.98;1.05;;;17.30;1.00;18.30;94206.00;;;;7374382;19;20136;-75
2023/05/06 08:00:11;;;;;;;1.30;1.00;;;17.70;1.00;18.80;94227.00;;;;7371854;19;20149;-76
2023/05/06 08:02:46;;;;;;;3.35;1.02;;;18.10;1.00;20.00;94235.00;;;;7370908;19;20163;-77
2023/05/06 08:05:33;;;;;;;0.60;0.60;;;18.20;1.00;17.90;94263.00;;;;7370671;19;20139;-77
2023/05/06 08:08:07;;;;;;;1.33;0.95;;;17.70;1.00;17.80;94251.00;;;;7374439;19;20187;-76
2023/05/06 08:10:43;;;;;;;1.33;0.82;;;17.20;1.00;16.20;94257.00;;;;7373391;19;20145;-77
2023/05/06 08:13:17;;;;;;;1.25;0.90;;;16.80;1.00;15.30;94250.00;;;;7374156;19;20487;-76
2023/05/06 08:15:51;;;;;;;1.42;0.80;;;16.70;1.00;16.10;94272.00;;;;7366625;19;20120;-76
2023/05/06 08:18:19;;;;;;;2.78;0.98;;;16.40;1.00;16.20;94248.00;;;;7372496;19;20165;-75
2023/05/06 08:20:54;;;;;;;1.17;0.90;;;16.30;1.00;16.80;94190.00;;;;7369637;19;21402;-75
2023/05/06 08:23:22;;;;;;;3.33;1.00;;;16.40;1.00;17.30;94271.00;;;;7375046;19;20141;-76
2023/05/06 08:25:58;;;;;;;0.93;0.60;;;16.50;1.00;17.40;94263.00;;;;7374171;19;20147;-76
2023/05/06 08:28:25;;;;;;;1.10;0.80;;;16.50;1.00;17.30;94254.00;;;;7365210;19;20153;-75
2023/05/06 08:30:59;;;;;;;1.67;0.90;;;16.60;1.00;17.30;94257.00;;;;7365155;19;20133;-77
2023/05/06 08:33:29;;;;;;;1.52;0.80;;;16.70;1.00;16.80;94265.00;;;;7358144;19;20133;-76
2023/05/06 08:36:03;;;;;;;1.02;0.90;;;16.70;1.00;16.60;94250.00;;;;7365028;19;20192;-76
2023/05/06 08:38:37;;;;;;;1.15;0.73;;;16.70;1.00;17.20;94260.00;;;;7366869;19;20125;-77
2023/05/06 08:41:15;;;;;;;1.38;0.82;;;16.70;1.00;18.00;94265.00;;;;7362284;19;20145;-76
2023/05/06 08:43:53;;;;;;;1.45;0.80;;;17.00;1.00;19.00;94246.00;;;;7363632;19;20148;-77
2023/05/06 08:46:21;;;;;;;1.45;0.93;;;17.50;1.00;20.10;94229.00;;;;7365395;19;22051;-76
2023/05/06 08:48:59;;;;;;;1.73;1.00;;;17.90;1.00;21.60;94224.00;;;;7353906;19;20524;-77
2023/05/06 08:51:36;;;;;;;3.03;1.20;;;18.90;1.00;22.80;94214.00;;;;7351433;19;20148;-77
2023/05/06 08:54:12;;;;;;;0.93;0.82;;;19.70;1.00;23.30;94226.00;;;;7358440;19;20152;-77
2023/05/06 08:56:48;;;;;;;2.13;1.00;;;20.60;1.00;24.20;94238.00;;;;7359990;19;20668;-77
2023/05/06 08:59:25;;;;;;;1.42;0.98;;;21.10;1.00;23.90;94200.00;;;;7359796;19;20124;-77
2023/05/06 09:01:53;;;;;;;2.85;0.98;;;21.70;1.00;24.40;94227.00;;;;7357048;19;20178;-78
2023/05/06 09:04:28;;;;;;;1.05;0.80;;;21.90;1.00;24.10;94202.00;;;;7358874;19;20152;-77
2023/05/06 09:07:19;;;;;;;1.15;0.82;;;22.30;1.00;25.20;94211.00;;;;7360556;19;20175;-79
2023/05/06 09:09:53;;;;;;;2.63;0.98;;;22.60;1.00;24.50;94231.00;;;;7364885;19;20165;-77
2023/05/06 09:12:28;;;;;;;1.30;0.90;;;23.20;1.00;23.70;94213.00;;;;7364913;19;20158;-77
2023/05/06 09:14:55;;;;;;;2.67;0.98;;;23.30;1.00;21.20;94241.00;;;;7365530;19;20144;-78
2023/05/06 09:17:31;;;;;;;2.15;0.98;;;23.20;1.00;20.20;94258.00;;;;7366505;19;20131;-78
2023/05/06 09:19:59;;;;;;;0.57;0.57;;;22.60;1.00;18.90;94271.00;;;;7362443;19;20172;-78
2023/05/06 09:22:38;;;;;;;1.52;0.85;;;21.60;1.00;18.60;94278.00;;;;7366834;19;20653;-77
2023/05/06 09:25:13;;;;;;;0.82;0.80;;;20.60;1.00;18.10;94275.00;;;;7366485;19;20156;-78
2023/05/06 09:27:46;;;;;;;1.92;0.80;;;19.90;1.00;17.90;94259.00;;;;7365497;19;20152;-77
2023/05/06 09:30:20;;;;;;;2.58;1.10;;;19.10;1.00;17.80;94253.00;;;;7372330;19;20128;-77
2023/05/06 09:32:48;;;;;;;11.00;3.92;;;18.60;1.00;17.70;94275.00;;;;7367418;19;20148;-77
2023/05/06 09:35:35;;;;;;;1.60;1.13;;;18.30;1.00;17.60;94281.00;;;;7364966;19;20128;-77
2023/05/06 09:38:02;;;;;;;0.73;0.70;;;18.10;1.00;18.00;94262.00;;;;7366139;19;20144;-77
2023/05/06 09:40:37;;;;;;;1.45;0.90;;;18.00;1.00;18.60;94251.00;;;;7367452;19;20140;-74
2023/05/06 09:43:12;;;;;;;1.08;0.98;;;17.90;1.00;18.40;94259.00;;;;7370550;19;20670;-76
2023/05/06 09:45:47;;;;;;;2.40;1.10;;;17.80;1.00;18.40;94247.00;;;;7367642;19;20183;-76
2023/05/06 09:48:15;;;;;;;2.35;1.00;;;17.80;1.00;18.60;94247.00;;;;7366945;19;20141;-77
2023/05/06 09:50:49;;;;;;;3.67;0.90;;;17.80;1.00;19.00;94222.00;;;;7368581;19;20914;-77
2023/05/06 09:53:19;;;;;;;0.82;0.80;;;18.00;1.00;19.50;94240.00;;;;7369626;19;20149;-77
2023/05/06 09:55:57;;;;;;;1.50;0.77;;;18.30;1.00;20.20;94222.00;;;;7369038;19;20159;-77
2023/05/06 09:58:25;;;;;;;1.25;0.98;;;18.60;1.00;20.80;94207.00;;;;7369992;19;20117;-79
2023/05/06 10:00:55;;;;;;;1.25;0.80;;;19.10;1.00;21.30;94224.00;;;;7366305;19;20146;-77
2023/05/06 10:03:32;;;;;;;0.90;0.73;;;19.60;1.00;21.10;94220.00;;;;7361280;19;20215;-78
2023/05/06 10:06:04;;;;;;;1.58;0.90;;;20.10;1.00;22.30;94221.00;;;;7367208;19;20231;-79
2023/05/06 10:08:43;;;;;;;2.40;1.00;;;20.60;1.00;22.80;94216.00;;;;7368608;19;20169;-78
2023/05/06 10:11:13;;;;;;;1.58;0.93;;;20.90;1.00;22.60;94223.00;;;;7368169;19;20484;-77
2023/05/06 10:13:48;;;;;;;1.00;0.90;;;21.10;1.00;21.90;94231.00;;;;7368020;19;20128;-76
2023/05/06 10:16:22;;;;;;;2.50;0.90;;;21.20;1.00;20.90;94185.00;;;;7368428;19;22285;-77
2023/05/06 10:18:59;;;;;;;1.55;1.13;;;20.80;1.00;21.50;94206.00;;;;7366803;19;20208;-75
2023/05/06 10:21:31;;;;;;;2.40;1.00;;;20.70;1.00;21.50;94183.00;;;;7369496;19;20153;-76
2023/05/06 10:24:10;;;;;;;1.75;0.90;;;20.30;1.00;20.80;94223.00;;;;7367759;19;20148;-77
2023/05/06 10:26:47;;;;;;;2.85;1.00;;;20.10;1.00;21.10;94228.00;;;;7365749;19;20137;-78
2023/05/06 10:29:16;;;;;;;2.80;0.98;;;20.10;1.00;21.00;94208.00;;;;7364451;19;20132;-77
2023/05/06 10:31:54;;;;;;;2.08;1.13;;;20.10;1.00;21.10;94192.00;;;;7368138;19;20211;-77
2023/05/06 10:34:23;;;;;;;1.60;1.20;;;20.30;1.00;22.20;94181.00;;;;7366061;19;20616;-77
2023/05/06 10:36:59;;;;;;;1.02;0.90;;;20.90;1.00;23.40;94177.00;;;;7370334;19;20159;-77
2023/05/06 10:39:34;;;;;;;0.90;0.90;;;21.70;1.00;25.10;94135.00;;;;7371944;19;20149;-77
2023/05/06 10:42:15;;;;;;;3.58;0.98;;;22.80;1.00;25.80;94177.00;;;;7372128;19;20128;-77
2023/05/06 10:45:02;;;;;;;1.67;1.00;;;23.50;99.90;25.60;94172.00;;;;7373786;19;20192;-78
2023/05/06 10:47:56;;;;;;;1.38;1.10;;;24.10;99.90;26.30;94162.00;;;;7379255;19;20610;-77
2023/05/06 10:50:26;;;;;;;2.05;1.00;;;24.60;99.90;26.00;94157.00;;;;7379662;19;20144;-77
2023/05/06 10:53:01;;;;;;;3.42;0.98;;;24.50;99.90;26.40;94170.00;;;;7379119;19;20155;-79
2023/05/06 10:55:39;;;;;;;1.10;0.93;;;25.00;99.90;25.60;94188.00;;;;7377563;19;20147;-78
2023/05/06 10:58:15;;;;;;;1.45;1.08;;;25.00;99.90;24.50;94177.00;;;;7379134;19;20158;-78
2023/05/06 11:00:54;;;;;;;1.20;1.10;;;24.10;99.90;24.30;94157.00;;;;7379418;19;20148;-77
2023/05/06 11:03:31;;;;;;;2.50;1.10;;;23.90;99.90;24.90;94157.00;;;;7376760;19;20180;-77
2023/05/06 11:05:59;;;;;;;1.83;1.00;;;24.20;99.90;26.40;94147.00;;;;7378740;19;20136;-78
2023/05/06 11:08:40;;;;;;;2.38;1.00;;;24.70;99.90;26.40;94183.00;;;;7378703;19;20129;-78
2023/05/06 11:11:51;;;;;;;2.90;1.08;;;25.40;99.90;24.30;94159.00;;;;7378639;19;20146;-78
2023/05/06 11:14:34;;;;;;;1.50;0.85;;;25.00;99.90;23.90;94171.00;;;;7375718;19;20151;-77
2023/05/06 11:17:32;;;;;;;2.10;1.10;;;24.10;99.90;23.90;94160.00;;;;7377255;19;20149;-76
2023/05/06 11:20:26;;;;;;;2.33;1.30;;;23.90;99.90;24.20;94134.00;;;;7377455;19;20632;-76
2023/05/06 11:23:00;;;;;;;1.15;0.90;;;24.10;99.90;25.00;94156.00;;;;7376504;19;20658;-76
2023/05/06 11:25:42;;;;;;;2.60;1.25;;;24.10;99.90;24.40;94162.00;;;;7377371;19;20161;-77